Campinacu, Brazil
Current Conditions -  °F | °C
As of 3:00 PM on Saturday 25 Oct 2014 (Local Time) from SBBR Reporting Station
Rain Showers Rain Showers  
Wind Chill: 77°   Ceiling: 8000
Heat Index: 79°   Visibility: 6mi
Dew Point: 59°   Wind: 15mph
Humidity: 54%   Direction: 240°WSW
Pressure: NA   Gusts: NA
Location:  13.79°S, 48.57°W
Report Text: SBBR 251700Z 24013KT 9999 VCSH SCT030 FEW035TCU BKN080 25/15 Q1016
Loading
Personal Weather Stations






























Interactive Weather Map
Tropical Storm Tracking
New forecast layout! Learn more

10-Day Weather Forecast

Advertisements
Track Severe Weather on mobile